• Join FlightAware (Why Join?)
  • Login
  • US Flag 
10:01PM EDT


 

Airport Tracker/Info


-or-


 

Live Flight TrackerFlight Track Log ✈ WBR2626 ✈ 10-May-2013 ✈ KSTL - KBRL

Flight Track Log - Related Links

Times and Time Zones

All times are in EDT time to prevent confusion due to time zone crossing. See the WBR2626 flight status page for this flight to view local times or setup timezone preferences in your user account.

Time Position Orientation Groundspeed Altitude Reporting Facility
EDT Latitude Longitude Course Direction KTS MPH feet Rate Location/Type
04:39PM 38.7667 -90.4000 360° North 93 107 1,100  Level Gateway (St. Louis) TRACON
04:40PM 38.7833 -90.4000 360° North 103 119 2,000 780 Climbing Gateway (St. Louis) TRACON
04:41PM 38.8167 -90.4000 360° North 120 138 2,700 480 Climbing Gateway (St. Louis) TRACON
04:42PM 38.8500 -90.3833 21° North 138 159 3,000 360 Climbing Gateway (St. Louis) TRACON
04:43PM 38.9000 -90.4000 345° North 131 151 3,500 540 Climbing Gateway (St. Louis) TRACON
04:44PM 38.9333 -90.4167 339° North 129 148 4,100 600 Climbing Gateway (St. Louis) TRACON
04:44PM 38.9381 -90.4164 North 129 148 4,300 600 Climbing Kansas City Center
04:45PM 38.9736 -90.4306 343° North 131 151 4,900 540 Climbing Kansas City Center
04:46PM 39.0100 -90.4439 344° North 135 155 5,500 600 Climbing Kansas City Center
04:47PM 39.0489 -90.4578 344° North 135 155 6,200 600 Climbing Kansas City Center
04:48PM 39.0858 -90.4686 347° North 138 159 6,800 480 Climbing Kansas City Center
04:49PM 39.1208 -90.4828 343° North 132 152 7,300 480 Climbing Kansas City Center
04:50PM 39.1583 -90.4967 344° North 138 159 7,800 300 Climbing Kansas City Center
04:51PM 39.1964 -90.5106 344° North 142 163 8,000 60 Climbing Kansas City Center
04:52PM 39.2353 -90.5272 342° North 145 167 8,000  Level Kansas City Center
04:53PM 39.2808 -90.5467 342° North 144 166 8,000  Level Kansas City Center
04:54PM 39.3192 -90.5622 343° North 143 165 8,000  Level Kansas City Center
04:55PM 39.3575 -90.5764 344° North 143 165 8,000  Level Kansas City Center
04:56PM 39.3956 -90.5867 348° North 141 162 8,000  Level Kansas City Center
04:57PM 39.4364 -90.6053 341° North 144 166 8,000  Level Kansas City Center
04:58PM 39.4733 -90.6161 347° North 144 166 8,000  Level Kansas City Center
04:59PM 39.5192 -90.6336 344° North 143 165 8,000  Level Kansas City Center
05:00PM 39.5567 -90.6503 341° North 143 165 8,000  Level Kansas City Center
05:01PM 39.5942 -90.6658 342° North 141 162 8,000  Level Kansas City Center
05:02PM 39.6325 -90.6800 344° North 142 163 8,000 -60 Level Kansas City Center
05:03PM 39.6714 -90.6925 346° North 143 165 7,900 -60 Descending Kansas City Center
05:05PM 39.7097 -90.7083 342° North 145 167 7,900  Level Kansas City Center
05:06PM 39.7556 -90.7239 345° North 143 165 7,900  Level Kansas City Center
05:07PM 39.7936 -90.7375 345° North 141 162 7,900  Level Kansas City Center
05:08PM 39.8306 -90.7506 345° North 140 161 8,000  Climbing Kansas City Center
05:09PM 39.8689 -90.7669 342° North 142 163 8,000  Level Kansas City Center
05:10PM 39.9072 -90.7828 342° North 142 163 8,000 -60 Level Kansas City Center
05:11PM 39.9450 -90.7969 344° North 142 163 7,900  Descending Kansas City Center
05:12PM 39.9897 -90.8153 343° North 140 161 8,000  Climbing Kansas City Center
05:13PM 40.0272 -90.8300 343° North 140 161 8,000  Level Kansas City Center
05:14PM 40.0656 -90.8436 345° North 142 163 8,000  Level Kansas City Center
05:15PM 40.1022 -90.8600 341° North 141 162 8,000 -60 Level Kansas City Center
05:16PM 40.1350 -90.8733 343° North 137 158 7,900 -60 Descending Chicago Center
05:17PM 40.1731 -90.8858 346° North 140 161 7,900  Level Chicago Center
05:18PM 40.2119 -90.9033 341° North 138 159 8,000  Climbing Chicago Center
05:19PM 40.2586 -90.9214 344° North 140 161 8,000 -60 Level Kansas City Center
05:20PM 40.2956 -90.9361 343° North 141 162 7,900 -60 Descending Kansas City Center
05:21PM 40.3322 -90.9522 341° North 140 161 7,900  Level Kansas City Center
05:22PM 40.3711 -90.9653 346° North 141 162 7,900 -180 Level Kansas City Center
05:23PM 40.4081 -90.9833 340° North 144 166 7,600 -540 Descending Chicago Center
05:24PM 40.4317 -91.0211 309° West 135 155 6,900 -600 Descending Chicago Center
05:25PM 40.4594 -91.0628 311° West 145 167 6,400 -540 Descending Chicago Center
05:26PM 40.4842 -91.1044 308° West 143 165 5,900 -540 Descending Chicago Center
05:27PM 40.5172 -91.1161 345° North 140 161 5,400 -420 Descending Chicago Center
05:28PM 40.5544 -91.1228 352° North 135 155 5,100 -540 Descending Chicago Center
05:29PM 40.5861 -91.1233 359° North 129 148 4,400 -780 Descending Chicago Center
05:30PM 40.6278 -91.1233 360° North 124 143 3,600 -720 Descending Chicago Center
05:31PM 40.6603 -91.1233 360° North 121 139 3,000 -600 Descending Chicago Center
05:33PM 40.7048 -91.1241 270° West  Level Estimated
05:40PM 40.7667 -91.1167 270° West  Level FlightAware Approximate
05:41PM 40.7832 -91.1255 270° West  Level Estimated